createdAt,value
2018-07-03T00:00:09.907Z,1.73
2018-07-03T00:02:37.870Z,1.53
2018-07-03T00:05:05.950Z,2.30
2018-07-03T00:07:33.559Z,1.50
2018-07-03T00:10:01.109Z,1.57
2018-07-03T00:12:28.851Z,1.93
2018-07-03T00:14:56.902Z,1.90
2018-07-03T00:17:24.627Z,3.07
2018-07-03T00:22:20.597Z,0.60
2018-07-03T00:24:48.142Z,1.93
2018-07-03T00:27:16.592Z,1.07
2018-07-03T00:29:44.261Z,0.80
2018-07-03T00:32:12.114Z,3.80
2018-07-03T00:34:39.842Z,1.40
2018-07-03T00:37:07.561Z,1.63
2018-07-03T00:39:35.287Z,3.63
2018-07-03T00:42:02.850Z,1.60
2018-07-03T00:44:30.533Z,1.37
2018-07-03T00:46:58.165Z,1.10
2018-07-03T00:49:25.806Z,1.37
2018-07-03T00:51:53.303Z,1.93
2018-07-03T00:54:21.001Z,2.70
2018-07-03T00:56:48.687Z,1.80
2018-07-03T00:59:16.182Z,1.67
2018-07-03T01:01:43.911Z,3.10
2018-07-03T01:04:11.631Z,1.50
2018-07-03T01:06:39.402Z,1.30
2018-07-03T01:09:08.036Z,2.70
2018-07-03T01:11:35.967Z,1.20
2018-07-03T01:14:03.697Z,2.50
2018-07-03T01:16:31.366Z,1.37
2018-07-03T01:18:59.116Z,1.17
2018-07-03T01:21:26.760Z,3.50
2018-07-03T01:23:54.371Z,3.03
2018-07-03T01:26:22.116Z,1.20
2018-07-03T01:28:49.681Z,1.20
2018-07-03T01:31:17.400Z,1.40
2018-07-03T01:33:45.100Z,1.60
2018-07-03T01:36:12.869Z,3.13
2018-07-03T01:38:40.382Z,1.70
2018-07-03T01:41:08.095Z,1.47
2018-07-03T01:43:35.740Z,1.47
2018-07-03T01:46:03.472Z,2.20
2018-07-03T01:48:31.142Z,1.67
2018-07-03T01:50:58.787Z,1.17
2018-07-03T01:53:26.323Z,1.13
2018-07-03T01:55:53.978Z,2.27
2018-07-03T01:58:21.662Z,2.27
2018-07-03T02:00:49.414Z,1.60
2018-07-03T02:03:17.055Z,1.77
2018-07-03T02:05:44.705Z,4.57
2018-07-03T02:08:12.382Z,4.93
2018-07-03T02:10:40.055Z,6.33
2018-07-03T02:13:07.721Z,8.43
2018-07-03T02:15:35.373Z,3.83
2018-07-03T02:18:02.933Z,3.53
2018-07-03T02:20:30.526Z,4.87
2018-07-03T02:22:58.155Z,1.70
2018-07-03T02:25:25.846Z,2.10
2018-07-03T02:27:53.366Z,1.77
2018-07-03T02:30:21.027Z,1.70
2018-07-03T02:32:48.639Z,1.87
2018-07-03T02:35:16.196Z,2.80
2018-07-03T02:37:43.735Z,1.20
2018-07-03T02:40:11.453Z,2.60
2018-07-03T02:42:39.092Z,3.57
2018-07-03T02:45:06.777Z,2.50
2018-07-03T02:47:34.317Z,2.83
2018-07-03T02:50:01.946Z,1.37
2018-07-03T02:52:29.491Z,1.60
2018-07-03T02:54:57.161Z,1.83
2018-07-03T02:57:24.727Z,2.73
2018-07-03T02:59:52.395Z,1.63
2018-07-03T03:02:20.068Z,1.77
2018-07-03T03:04:47.768Z,1.57
2018-07-03T03:07:15.428Z,4.73
2018-07-03T03:09:43.036Z,3.00
2018-07-03T03:12:10.631Z,1.60
2018-07-03T03:14:38.247Z,2.83
2018-07-03T03:17:05.936Z,2.90
2018-07-03T03:19:33.456Z,1.40
2018-07-03T03:22:01.188Z,2.27
2018-07-03T03:24:28.828Z,2.10
2018-07-03T03:26:56.488Z,3.37
2018-07-03T03:29:24.024Z,3.80
2018-07-03T03:31:51.697Z,1.90
2018-07-03T03:34:19.322Z,1.83
2018-07-03T03:36:47.113Z,2.17
2018-07-03T03:39:14.788Z,2.70
2018-07-03T03:41:42.317Z,1.73
2018-07-03T03:44:10.071Z,1.63
2018-07-03T03:46:37.606Z,1.40
2018-07-03T03:49:05.266Z,1.90
2018-07-03T03:51:32.979Z,1.50
2018-07-03T03:54:00.659Z,2.83
2018-07-03T03:56:28.198Z,2.53
2018-07-03T03:58:55.905Z,2.27
2018-07-03T04:01:23.608Z,1.50
2018-07-03T04:03:51.324Z,1.80
2018-07-03T04:06:18.878Z,1.50
2018-07-03T04:08:46.534Z,1.67
2018-07-03T04:11:14.272Z,2.67
2018-07-03T04:13:41.951Z,3.57
2018-07-03T04:16:09.631Z,2.40
2018-07-03T04:18:37.286Z,2.03
2018-07-03T04:21:06.206Z,1.37
2018-07-03T04:23:35.026Z,2.97
2018-07-03T04:26:02.687Z,1.40
2018-07-03T04:28:31.037Z,3.57
2018-07-03T04:30:58.708Z,1.87
2018-07-03T04:33:26.371Z,1.73
2018-07-03T04:35:54.051Z,2.50
2018-07-03T04:38:21.674Z,3.20
2018-07-03T04:40:49.319Z,3.17
2018-07-03T04:43:17.258Z,3.23
2018-07-03T04:45:44.809Z,3.37
2018-07-03T04:48:12.513Z,4.33
2018-07-03T04:50:40.243Z,3.10
2018-07-03T04:53:07.944Z,2.00
2018-07-03T04:55:35.656Z,3.77
2018-07-03T04:58:03.388Z,1.30
2018-07-03T05:00:31.179Z,1.67
2018-07-03T05:02:59.294Z,2.07
2018-07-03T05:05:27.048Z,2.10
2018-07-03T05:07:54.758Z,1.90
2018-07-03T05:10:22.472Z,1.40
2018-07-03T05:12:50.147Z,2.63
2018-07-03T05:15:17.903Z,1.53
2018-07-03T05:17:45.566Z,2.20
2018-07-03T05:20:13.167Z,1.50
2018-07-03T05:22:40.893Z,0.80
2018-07-03T05:25:08.597Z,1.10
2018-07-03T05:27:36.138Z,1.00
2018-07-03T05:30:04.307Z,1.03
2018-07-03T05:32:31.844Z,1.73
2018-07-03T05:34:59.497Z,1.17
2018-07-03T05:37:27.253Z,0.90
2018-07-03T05:39:54.819Z,1.00
2018-07-03T05:42:22.498Z,1.20
2018-07-03T05:44:50.128Z,1.83
2018-07-03T05:47:17.838Z,2.50
2018-07-03T05:49:45.539Z,2.40
2018-07-03T05:52:13.233Z,1.27
2018-07-03T05:54:40.926Z,1.83
2018-07-03T05:57:08.593Z,1.03
2018-07-03T05:59:36.213Z,1.20
2018-07-03T06:02:04.004Z,2.20
2018-07-03T06:04:31.584Z,2.53
2018-07-03T06:06:59.293Z,1.20
2018-07-03T06:09:26.996Z,2.30
2018-07-03T06:11:54.633Z,4.03
2018-07-03T06:14:22.354Z,1.53
2018-07-03T06:16:53.883Z,2.03
2018-07-03T06:19:22.316Z,1.53
2018-07-03T06:21:50.133Z,3.53
2018-07-03T06:24:17.819Z,1.47
2018-07-03T06:26:45.474Z,1.17
2018-07-03T06:29:13.159Z,1.10
2018-07-03T06:31:40.880Z,1.40
2018-07-03T06:34:08.595Z,0.90
2018-07-03T06:36:36.155Z,1.70
2018-07-03T06:39:07.300Z,1.20
2018-07-03T06:41:34.850Z,1.53
2018-07-03T06:44:02.558Z,2.30
2018-07-03T06:46:30.285Z,1.03
2018-07-03T06:48:58.040Z,2.23
2018-07-03T06:51:25.599Z,1.43
2018-07-03T06:53:54.165Z,3.30
2018-07-03T06:56:21.948Z,1.50
2018-07-03T06:58:49.629Z,1.73
2018-07-03T07:01:17.353Z,1.07
2018-07-03T07:03:44.925Z,1.60
2018-07-03T07:06:12.679Z,1.13
2018-07-03T07:08:40.249Z,1.03
2018-07-03T07:11:08.075Z,2.10
2018-07-03T07:13:35.807Z,0.70
2018-07-03T07:16:03.592Z,1.77
2018-07-03T07:18:31.271Z,3.87
2018-07-03T07:20:58.959Z,2.70
2018-07-03T07:23:26.594Z,1.47
2018-07-03T07:25:54.238Z,1.20
2018-07-03T07:28:22.011Z,0.63
2018-07-03T07:30:49.740Z,1.13
2018-07-03T07:33:17.323Z,2.07
2018-07-03T07:35:44.919Z,1.10
2018-07-03T07:38:12.518Z,0.53
2018-07-03T07:40:40.258Z,1.57
2018-07-03T07:43:07.979Z,1.27
2018-07-03T07:45:35.608Z,1.33
2018-07-03T07:48:03.364Z,2.83
2018-07-03T07:50:31.031Z,1.90
2018-07-03T07:52:58.754Z,3.07
2018-07-03T07:55:26.504Z,2.67
2018-07-03T07:57:54.204Z,1.03
2018-07-03T08:00:22.045Z,0.60
2018-07-03T08:02:49.723Z,1.43
2018-07-03T08:05:17.409Z,4.00
2018-07-03T08:07:44.942Z,0.97
2018-07-03T08:10:12.691Z,1.07
2018-07-03T08:12:40.250Z,0.97
2018-07-03T08:15:07.799Z,1.70
2018-07-03T08:17:35.439Z,0.60
2018-07-03T08:20:03.300Z,2.30
2018-07-03T08:22:31.230Z,0.53
2018-07-03T08:24:58.974Z,1.27
2018-07-03T08:27:26.735Z,0.83
2018-07-03T08:29:54.469Z,1.67
2018-07-03T08:32:22.201Z,2.23
2018-07-03T08:34:49.859Z,1.70
2018-07-03T08:37:17.464Z,0.90
2018-07-03T08:39:45.069Z,2.60
2018-07-03T08:42:12.694Z,1.10
2018-07-03T08:44:40.388Z,1.97
2018-07-03T08:47:08.135Z,1.03
2018-07-03T08:49:35.869Z,0.90
2018-07-03T08:52:03.627Z,1.57
2018-07-03T08:54:31.251Z,1.70
2018-07-03T08:56:58.929Z,1.63
2018-07-03T08:59:26.658Z,1.23
2018-07-03T09:01:54.380Z,1.40
2018-07-03T09:04:22.089Z,2.10
2018-07-03T09:06:49.826Z,1.23
2018-07-03T09:09:17.593Z,1.70
2018-07-03T09:11:45.175Z,1.00
2018-07-03T09:14:12.949Z,2.40
2018-07-03T09:16:40.526Z,2.60
2018-07-03T09:19:08.389Z,0.87
2018-07-03T09:21:35.941Z,1.07
2018-07-03T09:24:03.534Z,0.87
2018-07-03T09:26:31.278Z,0.77
2018-07-03T09:28:58.979Z,1.90
2018-07-03T09:31:26.661Z,2.93
2018-07-03T09:33:54.398Z,3.90
2018-07-03T09:36:22.026Z,0.63
2018-07-03T09:38:49.616Z,0.83
2018-07-03T09:41:17.293Z,2.80
2018-07-03T09:43:44.844Z,1.87
2018-07-03T09:46:12.520Z,0.93
2018-07-03T09:48:40.278Z,1.93
2018-07-03T09:51:07.823Z,2.30
2018-07-03T09:53:35.508Z,2.20
2018-07-03T09:56:03.141Z,1.73
2018-07-03T09:58:30.778Z,1.00
2018-07-03T10:00:58.583Z,4.27
2018-07-03T10:03:27.593Z,3.27
2018-07-03T10:05:58.031Z,0.77
2018-07-03T10:08:26.762Z,1.70
2018-07-03T10:10:54.531Z,1.43
2018-07-03T10:13:22.068Z,1.00
2018-07-03T10:15:49.794Z,2.70
2018-07-03T10:18:17.441Z,1.70
2018-07-03T10:20:45.239Z,1.47
2018-07-03T10:23:12.914Z,2.70
2018-07-03T10:25:40.674Z,1.40
2018-07-03T10:28:08.264Z,0.97
2018-07-03T10:30:35.969Z,1.37
2018-07-03T10:33:03.789Z,1.00
2018-07-03T10:35:31.436Z,0.90
2018-07-03T10:37:59.195Z,1.10
2018-07-03T10:40:26.714Z,2.33
2018-07-03T10:42:54.425Z,1.40
2018-07-03T10:45:23.555Z,2.20
2018-07-03T10:47:51.779Z,2.73
2018-07-03T10:50:19.333Z,1.93
2018-07-03T10:52:47.025Z,1.37
2018-07-03T10:55:14.559Z,1.20
2018-07-03T10:57:42.266Z,3.63
2018-07-03T11:00:09.880Z,1.67
2018-07-03T11:02:37.689Z,3.20
2018-07-03T11:05:05.697Z,3.50
2018-07-03T11:07:33.410Z,2.20
2018-07-03T11:10:01.068Z,2.40
2018-07-03T11:12:28.771Z,2.10
2018-07-03T11:14:56.550Z,4.70
2018-07-03T11:17:24.137Z,2.07
2018-07-03T11:19:51.929Z,3.87
2018-07-03T11:22:19.620Z,4.30
2018-07-03T11:24:47.285Z,3.17
2018-07-03T11:27:14.982Z,3.30
2018-07-03T11:29:42.819Z,2.70
2018-07-03T11:32:10.546Z,2.10
2018-07-03T11:34:38.199Z,4.00
2018-07-03T11:37:06.056Z,3.83
2018-07-03T11:39:33.810Z,2.53
2018-07-03T11:42:01.503Z,1.80
2018-07-03T11:44:29.266Z,2.37
2018-07-03T11:46:57.030Z,4.10
2018-07-03T11:49:24.739Z,3.67
2018-07-03T11:51:52.584Z,4.27
2018-07-03T11:54:20.310Z,2.20
2018-07-03T11:56:47.981Z,5.70
2018-07-03T11:59:15.544Z,3.33
2018-07-03T12:01:43.296Z,3.57
2018-07-03T12:04:11.036Z,3.30
2018-07-03T12:06:38.760Z,4.90
2018-07-03T12:09:08.230Z,4.83
2018-07-03T12:11:35.771Z,5.40
2018-07-03T12:14:04.395Z,5.00
2018-07-03T12:16:31.926Z,3.30
2018-07-03T12:19:00.330Z,3.20
2018-07-03T12:21:28.200Z,3.33
2018-07-03T12:23:56.589Z,4.77
2018-07-03T12:26:24.174Z,4.27
2018-07-03T12:28:52.151Z,4.77
2018-07-03T12:31:19.952Z,3.87
2018-07-03T12:33:47.701Z,4.73
2018-07-03T12:36:15.406Z,5.27
2018-07-03T12:38:43.057Z,3.80
2018-07-03T12:41:10.630Z,5.47
2018-07-03T12:43:38.280Z,4.27
2018-07-03T12:46:06.110Z,3.57
2018-07-03T12:48:33.795Z,5.47
2018-07-03T12:51:01.476Z,4.57
2018-07-03T12:53:29.176Z,4.70
2018-07-03T12:55:57.011Z,4.20
2018-07-03T12:58:24.716Z,3.90
2018-07-03T13:00:52.292Z,3.47
2018-07-03T13:03:19.996Z,3.03
2018-07-03T13:05:47.650Z,3.08
2018-07-03T13:08:15.432Z,4.62
2018-07-03T13:10:43.019Z,2.77
2018-07-03T13:13:10.714Z,4.60
2018-07-03T13:15:38.435Z,3.00
2018-07-03T13:18:11.510Z,3.27
2018-07-03T13:20:39.115Z,4.00
2018-07-03T13:23:06.915Z,4.05
2018-07-03T13:25:34.556Z,5.58
2018-07-03T13:28:02.165Z,3.10
2018-07-03T13:30:29.881Z,3.45
2018-07-03T13:32:57.602Z,4.83
2018-07-03T13:35:25.284Z,4.00
2018-07-03T13:37:53.092Z,3.35
2018-07-03T13:40:20.831Z,2.37
2018-07-03T13:42:48.402Z,3.98
2018-07-03T13:45:15.971Z,3.37
2018-07-03T13:47:43.540Z,2.45
2018-07-03T13:50:11.251Z,4.17
2018-07-03T13:52:38.942Z,2.52
2018-07-03T13:55:06.764Z,5.20
2018-07-03T13:57:34.401Z,4.40
2018-07-03T14:00:02.008Z,3.17
2018-07-03T14:02:29.645Z,3.08
2018-07-03T14:04:57.365Z,3.60
2018-07-03T14:07:25.081Z,2.58
2018-07-03T14:09:52.636Z,2.70
2018-07-03T14:12:20.351Z,3.02
2018-07-03T14:14:48.005Z,3.67
2018-07-03T14:17:15.675Z,4.50
2018-07-03T14:19:43.286Z,3.58
2018-07-03T14:22:11.001Z,3.27
2018-07-03T14:24:38.716Z,3.17
2018-07-03T14:27:06.496Z,4.10
2018-07-03T14:29:34.131Z,3.33
2018-07-03T14:32:01.886Z,2.27
2018-07-03T14:34:30.322Z,2.98
2018-07-03T14:36:58.040Z,2.15
2018-07-03T14:39:25.598Z,3.80
2018-07-03T14:41:53.345Z,10.85
2018-07-03T14:44:21.090Z,2.30
2018-07-03T14:46:48.825Z,3.55
2018-07-03T14:49:16.533Z,2.50
2018-07-03T14:51:44.216Z,3.37
2018-07-03T14:54:11.976Z,5.60
2018-07-03T14:56:39.667Z,5.05
2018-07-03T14:59:07.251Z,2.42
2018-07-03T15:01:35.000Z,2.00
2018-07-03T15:04:02.602Z,2.65
2018-07-03T15:06:30.236Z,2.37
2018-07-03T15:08:57.862Z,2.72
2018-07-03T15:11:25.570Z,2.40
2018-07-03T15:13:53.281Z,5.22
2018-07-03T15:16:21.100Z,4.60
2018-07-03T15:18:54.335Z,3.12
2018-07-03T15:21:22.039Z,2.85
2018-07-03T15:23:49.919Z,2.75
2018-07-03T15:26:17.712Z,2.75
2018-07-03T15:28:45.345Z,2.70
2018-07-03T15:31:13.143Z,5.30
2018-07-03T15:33:40.808Z,2.83
2018-07-03T15:36:08.385Z,4.70
2018-07-03T15:38:36.100Z,2.67
2018-07-03T15:41:04.866Z,7.83
2018-07-03T15:43:32.593Z,3.52
2018-07-03T15:46:00.336Z,3.95
2018-07-03T15:48:28.041Z,3.70
2018-07-03T15:50:55.792Z,3.20
2018-07-03T15:53:23.510Z,3.35
2018-07-03T15:55:51.242Z,4.00
2018-07-03T15:58:18.882Z,4.28
2018-07-03T16:00:46.590Z,4.28
2018-07-03T16:05:34.852Z,3.67
2018-07-03T16:08:48.670Z,5.12
2018-07-03T16:11:16.397Z,4.10
2018-07-03T16:13:44.047Z,2.97
2018-07-03T16:16:11.717Z,5.67
2018-07-03T16:18:39.305Z,3.57
2018-07-03T16:21:06.941Z,4.13
2018-07-03T16:23:34.643Z,3.63
2018-07-03T16:26:02.337Z,4.23
2018-07-03T16:28:30.845Z,5.77
2018-07-03T16:30:58.492Z,5.87
2018-07-03T16:33:26.035Z,3.10
2018-07-03T16:35:53.690Z,5.53
2018-07-03T16:38:21.391Z,4.50
2018-07-03T16:40:48.958Z,3.50
2018-07-03T16:43:16.531Z,3.50
2018-07-03T16:45:44.292Z,3.87
2018-07-03T16:48:12.001Z,4.03
2018-07-03T16:50:39.677Z,3.40
2018-07-03T16:53:07.240Z,3.20
2018-07-03T16:55:34.922Z,3.53
2018-07-03T16:58:02.675Z,4.43
2018-07-03T17:00:30.398Z,3.80
2018-07-03T17:02:58.225Z,4.67
2018-07-03T17:05:25.806Z,3.77
2018-07-03T17:07:53.387Z,3.50
2018-07-03T17:10:21.137Z,5.13
2018-07-03T17:12:48.850Z,4.57
2018-07-03T17:15:16.812Z,5.27
2018-07-03T17:17:44.521Z,3.67
2018-07-03T17:20:12.248Z,3.77
2018-07-03T17:22:39.971Z,6.83
2018-07-03T17:25:07.698Z,4.93
2018-07-03T17:27:35.405Z,5.10
2018-07-03T17:30:03.292Z,3.40
2018-07-03T17:32:31.017Z,3.97
2018-07-03T17:34:59.482Z,4.23
2018-07-03T17:37:27.861Z,4.57
2018-07-03T17:40:07.256Z,3.90
2018-07-03T17:42:46.957Z,4.10
2018-07-03T17:45:36.657Z,4.13
2018-07-03T17:48:05.520Z,4.57
2018-07-03T17:50:33.704Z,4.30
2018-07-03T17:53:01.756Z,4.13
2018-07-03T17:55:29.667Z,3.90
2018-07-03T17:57:58.187Z,3.93
2018-07-03T18:00:26.001Z,3.83
2018-07-03T18:02:53.537Z,3.57
2018-07-03T18:05:21.672Z,3.60
2018-07-03T18:07:49.651Z,3.43
2018-07-03T18:10:17.373Z,4.87
2018-07-03T18:12:45.023Z,2.90
2018-07-03T18:15:12.800Z,3.73
2018-07-03T18:17:40.453Z,2.90
2018-07-03T18:20:08.206Z,4.53
2018-07-03T18:22:35.908Z,2.83
2018-07-03T18:25:03.768Z,3.00
2018-07-03T18:27:31.586Z,3.47
2018-07-03T18:29:59.316Z,3.00
2018-07-03T18:32:27.318Z,3.23
2018-07-03T18:34:55.468Z,2.60
2018-07-03T18:37:23.027Z,2.60
2018-07-03T18:39:50.862Z,3.87
2018-07-03T18:42:18.590Z,3.53
2018-07-03T18:44:46.178Z,2.80
2018-07-03T18:47:13.887Z,3.07
2018-07-03T18:49:41.602Z,4.63
2018-07-03T18:52:09.615Z,2.83
2018-07-03T18:54:37.332Z,5.77
2018-07-03T18:57:05.371Z,3.80
2018-07-03T18:59:33.133Z,2.93
2018-07-03T19:02:00.859Z,3.80
2018-07-03T19:04:28.630Z,3.20
2018-07-03T19:06:56.477Z,2.90
2018-07-03T19:09:24.244Z,3.23
2018-07-03T19:11:52.188Z,3.20
2018-07-03T19:14:19.743Z,3.47
2018-07-03T19:16:47.489Z,2.60
2018-07-03T19:19:15.393Z,3.37
2018-07-03T19:21:43.168Z,2.60
2018-07-03T19:24:10.804Z,3.63
2018-07-03T19:26:38.388Z,4.00
2018-07-03T19:29:06.158Z,4.23
2018-07-03T19:31:33.733Z,5.07
2018-07-03T19:34:01.612Z,3.57
2018-07-03T19:36:29.354Z,4.73
2018-07-03T19:38:57.049Z,3.50
2018-07-03T19:41:24.782Z,6.37
2018-07-03T19:43:52.562Z,7.70
2018-07-03T19:46:20.308Z,4.13
2018-07-03T19:48:48.037Z,5.30
2018-07-03T19:51:15.618Z,3.40
2018-07-03T19:53:43.392Z,4.43
2018-07-03T19:56:11.126Z,4.63
2018-07-03T19:58:38.811Z,4.77
2018-07-03T20:01:06.605Z,3.90
2018-07-03T20:03:34.432Z,5.33
2018-07-03T20:06:02.349Z,5.23
2018-07-03T20:08:29.952Z,3.87
2018-07-03T20:10:57.718Z,4.50
2018-07-03T20:13:25.767Z,4.93
2018-07-03T20:15:53.981Z,4.03
2018-07-03T20:18:24.215Z,5.20
2018-07-03T20:20:52.107Z,3.40
2018-07-03T20:23:20.813Z,5.07
2018-07-03T20:25:50.891Z,3.23
2018-07-03T20:28:18.562Z,5.77
2018-07-03T20:30:46.267Z,4.37
2018-07-03T20:33:16.032Z,5.10
2018-07-03T20:35:44.628Z,5.13
2018-07-03T20:38:13.301Z,4.50
2018-07-03T20:40:50.793Z,4.43
2018-07-03T20:43:18.352Z,6.83
2018-07-03T20:45:46.899Z,4.50
2018-07-03T20:48:15.705Z,3.63
2018-07-03T20:50:43.888Z,3.93
2018-07-03T20:53:13.674Z,5.43
2018-07-03T20:55:41.806Z,5.73
2018-07-03T20:58:10.171Z,4.33
2018-07-03T21:00:38.284Z,4.27
2018-07-03T21:03:07.455Z,4.67
2018-07-03T21:05:36.401Z,5.00
2018-07-03T21:08:04.760Z,4.93
2018-07-03T21:10:33.961Z,7.97
2018-07-03T21:13:03.927Z,3.57
2018-07-03T21:15:32.412Z,4.90
2018-07-03T21:18:00.682Z,4.40
2018-07-03T21:20:29.563Z,4.40
2018-07-03T21:22:58.784Z,3.87
2018-07-03T21:25:27.304Z,4.10
2018-07-03T21:27:55.000Z,5.30
2018-07-03T21:30:22.562Z,4.60
2018-07-03T21:33:00.710Z,4.33
2018-07-03T21:35:29.004Z,6.13
2018-07-03T21:37:57.207Z,3.60
2018-07-03T21:40:24.949Z,4.53
2018-07-03T21:42:52.607Z,6.23
2018-07-03T21:45:20.272Z,5.63
2018-07-03T21:47:47.899Z,4.27
2018-07-03T21:50:15.465Z,7.80
2018-07-03T21:52:43.017Z,4.57
2018-07-03T21:55:10.677Z,6.50
2018-07-03T21:57:38.354Z,4.80
2018-07-03T22:00:06.589Z,5.10
2018-07-03T22:02:34.458Z,6.17
2018-07-03T22:05:02.157Z,5.77
2018-07-03T22:07:29.825Z,7.67
2018-07-03T22:09:57.690Z,3.90
2018-07-03T22:12:25.384Z,4.47
2018-07-03T22:14:53.038Z,5.20
2018-07-03T22:17:20.606Z,4.60
2018-07-03T22:19:48.564Z,6.37
2018-07-03T22:22:16.260Z,5.70
2018-07-03T22:24:43.901Z,6.87
2018-07-03T22:27:11.789Z,4.40
2018-07-03T22:29:39.419Z,5.07
2018-07-03T22:32:07.068Z,5.53
2018-07-03T22:34:35.078Z,4.23
2018-07-03T22:37:02.709Z,4.13
2018-07-03T22:39:30.443Z,4.17
2018-07-03T22:41:58.047Z,5.03
2018-07-03T22:44:25.715Z,4.30
2018-07-03T22:46:53.220Z,6.07
2018-07-03T22:49:21.264Z,4.00
2018-07-03T22:51:48.935Z,6.60
2018-07-03T22:54:16.565Z,3.50
2018-07-03T22:56:44.414Z,5.57
2018-07-03T22:59:11.968Z,4.80
2018-07-03T23:01:39.660Z,7.30
2018-07-03T23:04:07.305Z,4.10
2018-07-03T23:06:34.935Z,5.07
2018-07-03T23:09:02.744Z,4.73
2018-07-03T23:11:30.768Z,5.63
2018-07-03T23:13:58.390Z,5.50
2018-07-03T23:16:26.067Z,5.13
2018-07-03T23:18:54.540Z,5.00
2018-07-03T23:21:22.194Z,4.07
2018-07-03T23:23:49.842Z,5.07
2018-07-03T23:26:17.453Z,4.97
2018-07-03T23:28:44.997Z,5.97
2018-07-03T23:31:12.694Z,5.00
2018-07-03T23:33:40.385Z,4.33
2018-07-03T23:36:07.919Z,4.53
2018-07-03T23:38:35.580Z,4.33
2018-07-03T23:41:03.226Z,4.33
2018-07-03T23:43:30.885Z,4.73
2018-07-03T23:45:58.810Z,5.73
2018-07-03T23:48:37.833Z,6.73
2018-07-03T23:51:17.763Z,4.30
2018-07-03T23:53:56.820Z,4.67
2018-07-03T23:56:36.776Z,4.30
2018-07-03T23:59:15.978Z,3.83
